createdAt,value
2019-03-28T00:00:34.206Z,980.87
2019-03-28T00:01:34.120Z,980.89
2019-03-28T00:02:34.114Z,980.88
2019-03-28T00:03:34.101Z,980.92
2019-03-28T00:04:34.093Z,980.87
2019-03-28T00:05:34.085Z,980.88
2019-03-28T00:06:34.076Z,980.88
2019-03-28T00:07:34.072Z,980.86
2019-03-28T00:08:34.059Z,980.85
2019-03-28T00:09:34.056Z,980.87
2019-03-28T00:10:34.040Z,980.82
2019-03-28T00:11:34.032Z,980.9
2019-03-28T00:12:34.024Z,980.82
2019-03-28T00:13:34.015Z,980.83
2019-03-28T00:14:34.006Z,980.87
2019-03-28T00:15:34.000Z,980.83
2019-03-28T00:16:33.990Z,980.86
2019-03-28T00:17:33.983Z,980.83
2019-03-28T00:18:33.971Z,980.88
2019-03-28T00:19:33.963Z,980.86
2019-03-28T00:20:33.954Z,980.84
2019-03-28T00:21:33.944Z,980.9
2019-03-28T00:22:33.936Z,980.9
2019-03-28T00:23:33.927Z,980.89
2019-03-28T00:24:33.919Z,980.89
2019-03-28T00:25:33.909Z,980.87
2019-03-28T00:26:33.900Z,980.88
2019-03-28T00:27:33.893Z,980.92
2019-03-28T00:28:33.884Z,980.92
2019-03-28T00:29:33.875Z,980.94
2019-03-28T00:30:33.866Z,980.91
2019-03-28T00:31:33.858Z,980.88
2019-03-28T00:32:33.848Z,980.95
2019-03-28T00:33:33.839Z,980.9
2019-03-28T00:34:33.831Z,980.86
2019-03-28T00:35:33.822Z,980.89
2019-03-28T00:36:33.813Z,980.89
2019-03-28T00:37:33.804Z,980.88
2019-03-28T00:38:33.796Z,980.87
2019-03-28T00:39:33.788Z,980.88
2019-03-28T00:40:33.783Z,980.85
2019-03-28T00:41:33.769Z,980.81
2019-03-28T00:42:33.761Z,980.82
2019-03-28T00:43:33.751Z,980.79
2019-03-28T00:44:33.742Z,980.81
2019-03-28T00:45:33.735Z,980.78
2019-03-28T00:46:33.727Z,980.79
2019-03-28T00:47:33.716Z,980.79
2019-03-28T00:48:33.707Z,980.77
2019-03-28T00:49:33.700Z,980.75
2019-03-28T00:50:34.366Z,980.77
2019-03-28T00:51:33.681Z,980.78
2019-03-28T00:52:33.674Z,980.74
2019-03-28T00:53:33.664Z,980.77
2019-03-28T00:54:33.659Z,980.74
2019-03-28T00:55:33.647Z,980.71
2019-03-28T00:56:45.190Z,980.72
2019-03-28T00:57:33.630Z,980.72
2019-03-28T00:58:34.167Z,980.68
2019-03-28T00:59:33.611Z,980.65
2019-03-28T01:00:33.604Z,980.69
2019-03-28T01:01:33.594Z,980.69
2019-03-28T01:02:33.589Z,980.64
2019-03-28T01:03:33.577Z,980.64
2019-03-28T01:04:33.568Z,980.65
2019-03-28T01:05:33.564Z,980.67
2019-03-28T01:06:33.550Z,980.66
2019-03-28T01:07:33.542Z,980.66
2019-03-28T01:08:33.534Z,980.65
2019-03-28T01:09:33.523Z,980.64
2019-03-28T01:10:33.514Z,980.64
2019-03-28T01:11:33.507Z,980.63
2019-03-28T01:12:33.497Z,980.62
2019-03-28T01:13:33.489Z,980.68
2019-03-28T01:14:33.480Z,980.64
2019-03-28T01:15:33.471Z,980.61
2019-03-28T01:16:33.462Z,980.65
2019-03-28T01:17:33.453Z,980.61
2019-03-28T01:18:33.445Z,980.66
2019-03-28T01:19:33.437Z,980.63
2019-03-28T01:20:33.427Z,980.62
2019-03-28T01:21:33.417Z,980.71
2019-03-28T01:22:33.411Z,980.66
2019-03-28T01:23:33.399Z,980.66
2019-03-28T01:24:33.395Z,980.64
2019-03-28T01:25:33.382Z,980.64
2019-03-28T01:26:33.375Z,980.59
2019-03-28T01:27:33.365Z,980.61
2019-03-28T01:28:33.355Z,980.62
2019-03-28T01:29:33.347Z,980.6
2019-03-28T01:30:33.342Z,980.6
2019-03-28T01:31:33.329Z,980.57
2019-03-28T01:32:33.320Z,980.63
2019-03-28T01:33:33.311Z,980.59
2019-03-28T01:34:33.372Z,980.58
2019-03-28T01:35:33.292Z,980.6
2019-03-28T01:36:33.284Z,980.63
2019-03-28T01:37:33.276Z,980.57
2019-03-28T01:38:33.267Z,980.61
2019-03-28T01:39:33.258Z,980.57
2019-03-28T01:40:33.253Z,980.57
2019-03-28T01:41:33.240Z,980.58
2019-03-28T01:42:33.231Z,980.51
2019-03-28T01:43:33.222Z,980.53
2019-03-28T01:44:33.214Z,980.59
2019-03-28T01:45:33.309Z,980.55
2019-03-28T01:46:33.196Z,980.59
2019-03-28T01:47:33.187Z,980.54
2019-03-28T01:48:33.259Z,980.52
2019-03-28T01:49:33.169Z,980.48
2019-03-28T01:50:33.160Z,980.53
2019-03-28T01:51:33.154Z,980.49
2019-03-28T01:52:33.143Z,980.46
2019-03-28T01:53:33.135Z,980.42
2019-03-28T01:54:33.127Z,980.39
2019-03-28T01:55:33.118Z,980.42
2019-03-28T01:56:33.109Z,980.42
2019-03-28T01:57:33.098Z,980.42
2019-03-28T01:58:33.091Z,980.39
2019-03-28T01:59:33.082Z,980.38
2019-03-28T02:00:33.072Z,980.39
2019-03-28T02:01:33.063Z,980.36
2019-03-28T02:02:33.055Z,980.41
2019-03-28T02:03:33.045Z,980.4
2019-03-28T02:04:33.035Z,980.4
2019-03-28T02:05:33.027Z,980.38
2019-03-28T02:06:33.019Z,980.42
2019-03-28T02:07:33.009Z,980.41
2019-03-28T02:08:33.002Z,980.41
2019-03-28T02:09:32.992Z,980.39
2019-03-28T02:10:32.984Z,980.35
2019-03-28T02:11:32.973Z,980.33
2019-03-28T02:12:32.968Z,980.4
2019-03-28T02:13:32.958Z,980.38
2019-03-28T02:14:32.947Z,980.35
2019-03-28T02:15:32.938Z,980.39
2019-03-28T02:16:32.929Z,980.34
2019-03-28T02:17:32.920Z,980.33
2019-03-28T02:18:32.913Z,980.34
2019-03-28T02:19:32.903Z,980.31
2019-03-28T02:20:32.954Z,980.32
2019-03-28T02:21:32.887Z,980.34
2019-03-28T02:22:32.876Z,980.36
2019-03-28T02:23:32.867Z,980.33
2019-03-28T02:24:32.857Z,980.38
2019-03-28T02:25:32.852Z,980.33
2019-03-28T02:26:32.841Z,980.37
2019-03-28T02:27:32.831Z,980.35
2019-03-28T02:28:32.823Z,980.34
2019-03-28T02:29:33.214Z,980.34
2019-03-28T02:30:32.805Z,980.33
2019-03-28T02:31:32.795Z,980.35
2019-03-28T02:32:33.789Z,980.38
2019-03-28T02:33:32.779Z,980.38
2019-03-28T02:34:32.770Z,980.38
2019-03-28T02:35:32.764Z,980.33
2019-03-28T02:36:32.753Z,980.34
2019-03-28T02:37:32.743Z,980.39
2019-03-28T02:38:32.734Z,980.37
2019-03-28T02:39:32.726Z,980.35
2019-03-28T02:40:32.716Z,980.33
2019-03-28T02:41:32.707Z,980.3
2019-03-28T02:42:32.698Z,980.32
2019-03-28T02:43:32.690Z,980.34
2019-03-28T02:44:32.680Z,980.34
2019-03-28T02:45:32.682Z,980.4
2019-03-28T02:46:32.763Z,980.28
2019-03-28T02:47:32.654Z,980.34
2019-03-28T02:48:32.647Z,980.33
2019-03-28T02:49:32.636Z,980.32
2019-03-28T02:50:32.659Z,980.25
2019-03-28T02:51:32.617Z,980.25
2019-03-28T02:52:32.607Z,980.21
2019-03-28T02:53:32.599Z,980.23
2019-03-28T02:54:32.593Z,980.22
2019-03-28T02:55:32.581Z,980.2
2019-03-28T02:56:32.573Z,980.23
2019-03-28T02:57:40.578Z,980.23
2019-03-28T02:58:32.557Z,980.22
2019-03-28T02:59:32.546Z,980.18
2019-03-28T03:00:32.537Z,980.22
2019-03-28T03:01:32.528Z,980.17
2019-03-28T03:02:32.689Z,980.17
2019-03-28T03:03:32.509Z,980.17
2019-03-28T03:04:32.500Z,980.14
2019-03-28T03:05:32.492Z,980.13
2019-03-28T03:06:32.487Z,980.15
2019-03-28T03:07:32.475Z,980.15
2019-03-28T03:08:33.578Z,980.19
2019-03-28T03:09:32.454Z,980.13
2019-03-28T03:10:32.446Z,980.13
2019-03-28T03:11:32.438Z,980.12
2019-03-28T03:12:32.428Z,980.14
2019-03-28T03:13:32.419Z,980.11
2019-03-28T03:14:32.410Z,980.07
2019-03-28T03:15:32.401Z,980.1
2019-03-28T03:16:32.393Z,980.16
2019-03-28T03:17:32.385Z,980.08
2019-03-28T03:18:33.697Z,980.11
2019-03-28T03:19:32.371Z,980.13
2019-03-28T03:20:32.358Z,980.1
2019-03-28T03:21:32.346Z,980.2
2019-03-28T03:22:32.342Z,980.12
2019-03-28T03:23:32.334Z,980.07
2019-03-28T03:24:32.320Z,980.13
2019-03-28T03:25:32.311Z,980.11
2019-03-28T03:26:32.302Z,980.16
2019-03-28T03:27:32.294Z,980.24
2019-03-28T03:28:32.284Z,980.11
2019-03-28T03:29:32.275Z,980.14
2019-03-28T03:30:32.369Z,980.19
2019-03-28T03:31:32.259Z,980.17
2019-03-28T03:32:32.261Z,980.2
2019-03-28T03:33:32.244Z,980.19
2019-03-28T03:34:33.041Z,980.24
2019-03-28T03:35:32.225Z,980.28
2019-03-28T03:36:32.211Z,980.2
2019-03-28T03:37:32.202Z,980.13
2019-03-28T03:38:32.193Z,980.16
2019-03-28T03:39:32.184Z,980.18
2019-03-28T03:40:32.176Z,980.12
2019-03-28T03:41:32.167Z,980.06
2019-03-28T03:42:32.292Z,980.09
2019-03-28T03:43:32.148Z,980.16
2019-03-28T03:44:32.139Z,980.22
2019-03-28T03:45:32.130Z,980.15
2019-03-28T03:46:32.121Z,980.15
2019-03-28T03:47:32.113Z,980.1
2019-03-28T03:48:32.103Z,980.14
2019-03-28T03:49:32.114Z,980.24
2019-03-28T03:50:32.084Z,980.11
2019-03-28T03:51:32.089Z,980.12
2019-03-28T03:52:32.067Z,980.14
2019-03-28T03:53:32.057Z,980.08
2019-03-28T03:54:32.048Z,980.16
2019-03-28T03:55:32.040Z,980.16
2019-03-28T03:56:32.030Z,980.12
2019-03-28T03:57:32.021Z,980.17
2019-03-28T03:58:32.012Z,980.09
2019-03-28T03:59:32.003Z,980.14
2019-03-28T04:00:31.994Z,980.15
2019-03-28T04:01:31.992Z,980.14
2019-03-28T04:02:31.976Z,980.1
2019-03-28T04:03:31.967Z,980.11
2019-03-28T04:04:31.956Z,980.15
2019-03-28T04:05:31.948Z,980.11
2019-03-28T04:06:31.938Z,980.18
2019-03-28T04:07:31.931Z,980.11
2019-03-28T04:08:31.920Z,980.08
2019-03-28T04:09:31.910Z,980.1
2019-03-28T04:10:31.903Z,980.06
2019-03-28T04:11:31.894Z,980.02
2019-03-28T04:12:31.886Z,980.05
2019-03-28T04:13:31.877Z,980.05
2019-03-28T04:14:31.873Z,980.08
2019-03-28T04:15:31.858Z,980.05
2019-03-28T04:16:31.849Z,980.01
2019-03-28T04:17:31.841Z,980.05
2019-03-28T04:18:31.833Z,980.07
2019-03-28T04:19:32.036Z,980.02
2019-03-28T04:20:31.812Z,979.97
2019-03-28T04:21:31.805Z,980.01
2019-03-28T04:22:31.794Z,980.02
2019-03-28T04:23:31.786Z,980.02
2019-03-28T04:24:31.781Z,980.01
2019-03-28T04:25:31.768Z,980
2019-03-28T04:26:32.045Z,980
2019-03-28T04:27:31.749Z,980.01
2019-03-28T04:28:32.760Z,980.04
2019-03-28T04:29:31.731Z,980.03
2019-03-28T04:30:31.721Z,980.06
2019-03-28T04:31:31.715Z,980.02
2019-03-28T04:32:31.707Z,980
2019-03-28T04:33:31.695Z,980.05
2019-03-28T04:34:31.686Z,980.03
2019-03-28T04:35:31.682Z,980.03
2019-03-28T04:36:31.668Z,979.98
2019-03-28T04:37:32.617Z,980.06
2019-03-28T04:38:31.650Z,980.05
2019-03-28T04:39:31.641Z,979.98
2019-03-28T04:40:31.633Z,980.04
2019-03-28T04:41:31.650Z,980.07
2019-03-28T04:42:31.615Z,980.02
2019-03-28T04:43:31.605Z,980.1
2019-03-28T04:44:31.595Z,980.03
2019-03-28T04:45:31.586Z,980.09
2019-03-28T04:46:31.578Z,980.03
2019-03-28T04:47:31.568Z,980.01
2019-03-28T04:48:31.559Z,980.03
2019-03-28T04:49:31.552Z,980.08
2019-03-28T04:50:31.541Z,980.12
2019-03-28T04:51:31.532Z,980.15
2019-03-28T04:52:32.007Z,980.04
2019-03-28T04:53:31.514Z,980.09
2019-03-28T04:54:31.504Z,980.14
2019-03-28T04:55:31.495Z,980.08
2019-03-28T04:56:31.486Z,980.18
2019-03-28T04:57:31.477Z,980.11
2019-03-28T04:58:43.701Z,980.14
2019-03-28T04:59:31.458Z,980.02
2019-03-28T05:00:31.450Z,980.12
2019-03-28T05:01:31.440Z,980.11
2019-03-28T05:02:31.610Z,980.08
2019-03-28T05:03:31.425Z,980.06
2019-03-28T05:04:31.413Z,980.08
2019-03-28T05:05:32.376Z,980.17
2019-03-28T05:06:31.394Z,980.13
2019-03-28T05:07:31.385Z,980.05
2019-03-28T05:08:31.377Z,980.08
2019-03-28T05:09:31.368Z,980.11
2019-03-28T05:10:33.071Z,980.04
2019-03-28T05:11:31.385Z,980.09
2019-03-28T05:12:31.340Z,980.04
2019-03-28T05:13:31.330Z,980.09
2019-03-28T05:14:31.322Z,980.08
2019-03-28T05:15:32.082Z,980
2019-03-28T05:16:31.304Z,980.04
2019-03-28T05:17:31.293Z,980
2019-03-28T05:18:31.308Z,980.06
2019-03-28T05:19:31.276Z,979.98
2019-03-28T05:20:31.268Z,980.04
2019-03-28T05:21:31.457Z,980.03
2019-03-28T05:22:31.248Z,980.05
2019-03-28T05:23:31.239Z,980.11
2019-03-28T05:24:31.231Z,980.05
2019-03-28T05:25:31.220Z,980.06
2019-03-28T05:26:31.212Z,980.09
2019-03-28T05:27:31.205Z,980.02
2019-03-28T05:28:31.193Z,980.09
2019-03-28T05:29:31.184Z,980.01
2019-03-28T05:30:31.176Z,980
2019-03-28T05:31:31.166Z,980.03
2019-03-28T05:32:31.157Z,980
2019-03-28T05:33:31.147Z,980
2019-03-28T05:34:31.138Z,980.02
2019-03-28T05:35:31.129Z,980.03
2019-03-28T05:36:31.120Z,980.01
2019-03-28T05:37:31.110Z,980.05
2019-03-28T05:38:31.102Z,980.03
2019-03-28T05:39:31.092Z,980.05
2019-03-28T05:40:31.084Z,980.03
2019-03-28T05:41:31.074Z,980.06
2019-03-28T05:42:31.067Z,980.1
2019-03-28T05:43:31.055Z,980.08
2019-03-28T05:44:31.047Z,980.1
2019-03-28T05:45:31.037Z,980.09
2019-03-28T05:46:31.029Z,980.1
2019-03-28T05:47:31.021Z,980.12
2019-03-28T05:48:31.011Z,980.14
2019-03-28T05:49:31.003Z,980.11
2019-03-28T05:50:30.994Z,980.15
2019-03-28T05:51:30.984Z,980.17
2019-03-28T05:52:30.975Z,980.12
2019-03-28T05:53:30.969Z,980.2
2019-03-28T05:54:30.958Z,980.2
2019-03-28T05:55:30.982Z,980.2
2019-03-28T05:56:30.939Z,980.25
2019-03-28T05:57:30.929Z,980.27
2019-03-28T05:58:30.920Z,980.21
2019-03-28T05:59:30.911Z,980.22
2019-03-28T06:00:30.902Z,980.3
2019-03-28T06:01:30.893Z,980.24
2019-03-28T06:02:30.884Z,980.3
2019-03-28T06:03:30.878Z,980.27
2019-03-28T06:04:30.866Z,980.26
2019-03-28T06:05:30.856Z,980.28
2019-03-28T06:06:30.847Z,980.28
2019-03-28T06:07:30.839Z,980.18
2019-03-28T06:08:30.910Z,980.29
2019-03-28T06:09:30.821Z,980.33
2019-03-28T06:10:30.811Z,980.26
2019-03-28T06:11:30.802Z,980.26
2019-03-28T06:12:30.794Z,980.3
2019-03-28T06:13:30.785Z,980.32
2019-03-28T06:14:30.818Z,980.35
2019-03-28T06:15:30.766Z,980.29
2019-03-28T06:16:30.757Z,980.26
2019-03-28T06:17:30.748Z,980.32
2019-03-28T06:18:30.740Z,980.35
2019-03-28T06:19:30.730Z,980.39
2019-03-28T06:20:30.722Z,980.42
2019-03-28T06:21:30.713Z,980.36
2019-03-28T06:22:30.708Z,980.4
2019-03-28T06:23:30.695Z,980.39
2019-03-28T06:24:31.219Z,980.43
2019-03-28T06:25:30.680Z,980.42
2019-03-28T06:26:30.667Z,980.43
2019-03-28T06:27:30.658Z,980.46
2019-03-28T06:28:30.651Z,980.41
2019-03-28T06:29:30.641Z,980.38
2019-03-28T06:30:30.630Z,980.45
2019-03-28T06:31:30.622Z,980.41
2019-03-28T06:32:42.151Z,980.51
2019-03-28T06:33:30.607Z,980.47
2019-03-28T06:34:30.596Z,980.5
2019-03-28T06:35:30.587Z,980.5
2019-03-28T06:36:30.579Z,980.51
2019-03-28T06:37:30.570Z,980.56
2019-03-28T06:38:30.561Z,980.52
2019-03-28T06:39:30.551Z,980.56
2019-03-28T06:40:31.332Z,980.54
2019-03-28T06:41:30.534Z,980.55
2019-03-28T06:42:30.526Z,980.58
2019-03-28T06:43:30.517Z,980.53
2019-03-28T06:44:30.508Z,980.63
2019-03-28T06:45:30.498Z,980.58
2019-03-28T06:46:30.490Z,980.6
2019-03-28T06:47:30.482Z,980.59
2019-03-28T06:48:30.472Z,980.58
2019-03-28T06:49:30.466Z,980.61
2019-03-28T06:50:30.454Z,980.63
2019-03-28T06:51:30.445Z,980.65
2019-03-28T06:52:30.436Z,980.66
2019-03-28T06:53:30.427Z,980.65
2019-03-28T06:54:30.668Z,980.62
2019-03-28T06:55:30.411Z,980.67
2019-03-28T06:56:30.402Z,980.59
2019-03-28T06:57:30.392Z,980.6
2019-03-28T06:58:30.386Z,980.59
2019-03-28T06:59:36.999Z,980.62
2019-03-28T07:00:30.365Z,980.6
2019-03-28T07:01:30.357Z,980.63
2019-03-28T07:02:30.348Z,980.62
2019-03-28T07:03:30.340Z,980.65
2019-03-28T07:04:30.457Z,980.64
2019-03-28T07:05:30.327Z,980.61
2019-03-28T07:06:30.319Z,980.66
2019-03-28T07:07:30.303Z,980.63
2019-03-28T07:08:30.295Z,980.66
2019-03-28T07:09:30.286Z,980.68
2019-03-28T07:10:30.278Z,980.7
2019-03-28T07:11:30.322Z,980.65
2019-03-28T07:12:30.260Z,980.7
2019-03-28T07:13:30.251Z,980.69
2019-03-28T07:14:30.241Z,980.63
2019-03-28T07:15:30.234Z,980.68
2019-03-28T07:16:30.224Z,980.62
2019-03-28T07:17:30.215Z,980.62
2019-03-28T07:18:30.206Z,980.72
2019-03-28T07:19:30.201Z,980.71
2019-03-28T07:20:30.190Z,980.7
2019-03-28T07:21:30.180Z,980.68
2019-03-28T07:22:30.183Z,980.69
2019-03-28T07:23:30.174Z,980.7
2019-03-28T07:24:30.155Z,980.7
2019-03-28T07:25:30.147Z,980.71
2019-03-28T07:26:30.145Z,980.76
2019-03-28T07:27:30.130Z,980.74
2019-03-28T07:28:30.122Z,980.79
2019-03-28T07:29:30.112Z,980.73
2019-03-28T07:30:30.102Z,980.74
2019-03-28T07:31:30.094Z,980.75
2019-03-28T07:32:30.087Z,980.77
2019-03-28T07:33:30.077Z,980.78
2019-03-28T07:34:30.069Z,980.86
2019-03-28T07:35:30.061Z,980.81
2019-03-28T07:36:30.053Z,980.78
2019-03-28T07:37:30.046Z,980.76
2019-03-28T07:38:30.038Z,980.81
2019-03-28T07:39:30.026Z,980.76
2019-03-28T07:40:30.959Z,980.79
2019-03-28T07:41:30.008Z,980.8
2019-03-28T07:42:30.000Z,980.8
2019-03-28T07:43:29.991Z,980.75
2019-03-28T07:44:29.981Z,980.76
2019-03-28T07:45:29.978Z,980.81
2019-03-28T07:46:29.964Z,980.71
2019-03-28T07:47:29.957Z,980.71
2019-03-28T07:48:29.948Z,980.69
2019-03-28T07:49:29.939Z,980.67
2019-03-28T07:50:30.929Z,980.69
2019-03-28T07:51:29.922Z,980.65
2019-03-28T07:52:29.913Z,980.66
2019-03-28T07:53:29.914Z,980.69
2019-03-28T07:54:29.895Z,980.67
2019-03-28T07:55:29.889Z,980.69
2019-03-28T07:56:29.879Z,980.71
2019-03-28T07:57:29.872Z,980.72
2019-03-28T07:58:29.862Z,980.67
2019-03-28T07:59:29.854Z,980.71
2019-03-28T08:00:29.846Z,980.67
2019-03-28T08:01:29.837Z,980.75
2019-03-28T08:02:29.829Z,980.69
2019-03-28T08:03:29.818Z,980.68
2019-03-28T08:04:29.811Z,980.67
2019-03-28T08:05:29.803Z,980.66
2019-03-28T08:06:29.794Z,980.62
2019-03-28T08:07:29.785Z,980.61
2019-03-28T08:08:38.497Z,980.61
2019-03-28T08:09:36.290Z,980.69
2019-03-28T08:10:29.761Z,980.62
2019-03-28T08:11:29.773Z,980.63
2019-03-28T08:12:30.450Z,980.63
2019-03-28T08:13:29.745Z,980.64
2019-03-28T08:14:29.776Z,980.67
2019-03-28T08:15:29.720Z,980.64
2019-03-28T08:16:29.728Z,980.63
2019-03-28T08:17:29.703Z,980.65
2019-03-28T08:18:29.692Z,980.64
2019-03-28T08:19:29.686Z,980.7
2019-03-28T08:20:29.676Z,980.63
2019-03-28T08:21:29.668Z,980.63
2019-03-28T08:22:29.966Z,980.61
2019-03-28T08:23:29.652Z,980.68
2019-03-28T08:24:29.643Z,980.67
2019-03-28T08:25:29.635Z,980.63
2019-03-28T08:26:30.315Z,980.65
2019-03-28T08:27:29.617Z,980.67
2019-03-28T08:28:29.609Z,980.65
2019-03-28T08:29:29.601Z,980.72
2019-03-28T08:30:29.594Z,980.74
2019-03-28T08:31:29.584Z,980.68
2019-03-28T08:32:29.576Z,980.65
2019-03-28T08:33:29.573Z,980.69
2019-03-28T08:34:31.207Z,980.64
2019-03-28T08:35:29.551Z,980.68
2019-03-28T08:36:29.542Z,980.7
2019-03-28T08:37:29.535Z,980.66
2019-03-28T08:38:29.525Z,980.65
2019-03-28T08:39:29.518Z,980.66
2019-03-28T08:40:29.515Z,980.69
2019-03-28T08:41:29.503Z,980.72
2019-03-28T08:42:29.491Z,980.66
2019-03-28T08:43:29.484Z,980.66
2019-03-28T08:44:29.475Z,980.65
2019-03-28T08:45:29.468Z,980.59
2019-03-28T08:46:29.459Z,980.64
2019-03-28T08:47:29.451Z,980.7
2019-03-28T08:48:29.443Z,980.73
2019-03-28T08:49:29.434Z,980.68
2019-03-28T08:50:29.425Z,980.69
2019-03-28T08:51:29.427Z,980.71
2019-03-28T08:52:29.410Z,980.79
2019-03-28T08:53:29.401Z,980.72
2019-03-28T08:54:29.393Z,980.74
2019-03-28T08:55:29.384Z,980.78
2019-03-28T08:56:29.377Z,980.81
2019-03-28T08:57:29.367Z,980.8
2019-03-28T08:58:29.360Z,980.73
2019-03-28T08:59:29.354Z,980.71
2019-03-28T09:00:33.302Z,980.67
2019-03-28T09:01:29.339Z,980.68
2019-03-28T09:02:29.329Z,980.62
2019-03-28T09:03:29.319Z,980.6
2019-03-28T09:04:29.312Z,980.61
2019-03-28T09:05:29.303Z,980.65
2019-03-28T09:06:29.298Z,980.66
2019-03-28T09:07:29.286Z,980.64
2019-03-28T09:08:29.279Z,980.62
2019-03-28T09:09:29.271Z,980.67
2019-03-28T09:10:29.265Z,980.55
2019-03-28T09:11:29.254Z,980.59
2019-03-28T09:12:29.249Z,980.66
2019-03-28T09:13:29.245Z,980.59
2019-03-28T09:14:31.861Z,980.62
2019-03-28T09:15:42.537Z,980.66
2019-03-28T09:16:29.214Z,980.62
2019-03-28T09:17:29.207Z,980.58
2019-03-28T09:18:29.198Z,980.56
2019-03-28T09:19:29.190Z,980.51
2019-03-28T09:20:29.183Z,980.49
2019-03-28T09:21:29.174Z,980.46
2019-03-28T09:22:29.166Z,980.44
2019-03-28T09:23:29.159Z,980.43
2019-03-28T09:24:29.152Z,980.45
2019-03-28T09:25:29.143Z,980.38
2019-03-28T09:26:29.134Z,980.41
2019-03-28T09:27:29.127Z,980.41
2019-03-28T09:28:29.119Z,980.44
2019-03-28T09:29:29.111Z,980.36
2019-03-28T09:30:29.105Z,980.45
2019-03-28T09:31:29.100Z,980.42
2019-03-28T09:32:29.087Z,980.35
2019-03-28T09:33:29.078Z,980.41
2019-03-28T09:34:29.071Z,980.46
2019-03-28T09:35:29.114Z,980.37
2019-03-28T09:36:29.182Z,980.52
2019-03-28T09:37:29.047Z,980.46
2019-03-28T09:38:29.040Z,980.42
2019-03-28T09:39:29.032Z,980.37
2019-03-28T09:40:29.031Z,980.41
2019-03-28T09:41:29.028Z,980.39
2019-03-28T09:42:29.010Z,980.37
2019-03-28T09:43:29.000Z,980.43
2019-03-28T09:44:28.991Z,980.5
2019-03-28T09:45:29.026Z,980.42
2019-03-28T09:46:29.457Z,980.36
2019-03-28T09:47:28.966Z,980.35
2019-03-28T09:48:28.959Z,980.42
2019-03-28T09:49:28.951Z,980.38
2019-03-28T09:50:28.943Z,980.4
2019-03-28T09:51:28.934Z,980.32
2019-03-28T09:52:28.928Z,980.32
2019-03-28T09:53:28.920Z,980.4
2019-03-28T09:54:28.913Z,980.28
2019-03-28T09:55:28.904Z,980.26
2019-03-28T09:56:28.896Z,980.31
2019-03-28T09:57:28.945Z,980.29
2019-03-28T09:58:28.881Z,980.29
2019-03-28T09:59:28.873Z,980.36
2019-03-28T10:00:28.866Z,980.31
2019-03-28T10:01:28.857Z,980.3
2019-03-28T10:02:28.850Z,980.33
2019-03-28T10:03:28.993Z,980.32
2019-03-28T10:04:28.833Z,980.32
2019-03-28T10:05:28.826Z,980.31
2019-03-28T10:06:28.818Z,980.27
2019-03-28T10:07:28.811Z,980.33
2019-03-28T10:08:28.804Z,980.26
2019-03-28T10:09:28.795Z,980.18
2019-03-28T10:10:28.788Z,980.22
2019-03-28T10:11:28.781Z,980.28
2019-03-28T10:12:28.772Z,980.23
2019-03-28T10:13:28.764Z,980.24
2019-03-28T10:14:28.757Z,980.27
2019-03-28T10:15:28.749Z,980.22
2019-03-28T10:16:28.742Z,980.22
2019-03-28T10:17:28.735Z,980.18
2019-03-28T10:18:30.164Z,980.26
2019-03-28T10:19:28.719Z,980.31
2019-03-28T10:20:28.712Z,980.28
2019-03-28T10:21:28.703Z,980.29
2019-03-28T10:22:28.696Z,980.31
2019-03-28T10:23:28.688Z,980.06
2019-03-28T10:24:28.679Z,980.13
2019-03-28T10:25:28.672Z,980.14
2019-03-28T10:26:28.665Z,980.12
2019-03-28T10:27:28.657Z,980.18
2019-03-28T10:28:28.655Z,980.09
2019-03-28T10:29:28.642Z,980.02
2019-03-28T10:30:28.634Z,980.11
2019-03-28T10:31:28.628Z,980.1
2019-03-28T10:32:28.620Z,980.09
2019-03-28T10:33:28.614Z,980.16
2019-03-28T10:34:28.605Z,980.14
2019-03-28T10:35:28.597Z,980.11
2019-03-28T10:36:28.590Z,980.12
2019-03-28T10:37:28.583Z,980.12
2019-03-28T10:38:28.575Z,980.13
2019-03-28T10:39:28.566Z,980.08
2019-03-28T10:40:28.560Z,980.13
2019-03-28T10:41:28.874Z,980.05
2019-03-28T10:42:28.544Z,980.08
2019-03-28T10:43:28.537Z,980.11
2019-03-28T10:44:28.529Z,980.08
2019-03-28T10:45:28.522Z,980.04
2019-03-28T10:46:28.519Z,980.07
2019-03-28T10:47:28.508Z,980.12
2019-03-28T10:48:28.500Z,980.03
2019-03-28T10:49:28.499Z,980.03
2019-03-28T10:50:40.134Z,979.94
2019-03-28T10:51:28.478Z,979.94
2019-03-28T10:52:28.470Z,980.03
2019-03-28T10:53:30.036Z,980
2019-03-28T10:54:28.454Z,979.93
2019-03-28T10:55:28.446Z,979.96
2019-03-28T10:56:28.439Z,980.01
2019-03-28T10:57:30.413Z,979.95
2019-03-28T10:58:28.423Z,979.9
2019-03-28T10:59:28.417Z,979.91
2019-03-28T11:00:28.409Z,979.99
2019-03-28T11:01:41.881Z,979.98
2019-03-28T11:02:28.841Z,979.92
2019-03-28T11:03:28.387Z,979.94
2019-03-28T11:04:28.378Z,979.96
2019-03-28T11:05:28.370Z,979.95
2019-03-28T11:06:28.364Z,979.9
2019-03-28T11:07:28.356Z,980.01
2019-03-28T11:08:28.348Z,979.98
2019-03-28T11:09:28.341Z,979.93
2019-03-28T11:10:30.544Z,979.9
2019-03-28T11:11:28.327Z,979.93
2019-03-28T11:12:28.318Z,979.96
2019-03-28T11:13:28.311Z,979.97
2019-03-28T11:14:28.304Z,979.86
2019-03-28T11:15:28.296Z,979.9
2019-03-28T11:16:29.376Z,979.95
2019-03-28T11:17:28.286Z,979.93
2019-03-28T11:18:28.274Z,979.98
2019-03-28T11:19:28.266Z,979.92
2019-03-28T11:20:28.259Z,979.9
2019-03-28T11:21:28.254Z,979.9
2019-03-28T11:22:28.247Z,979.89
2019-03-28T11:23:28.238Z,979.86
2019-03-28T11:24:28.229Z,979.87
2019-03-28T11:25:28.278Z,979.88
2019-03-28T11:26:28.213Z,979.84
2019-03-28T11:27:28.209Z,979.79
2019-03-28T11:28:28.200Z,979.78
2019-03-28T11:29:28.192Z,979.75
2019-03-28T11:30:28.184Z,979.8
2019-03-28T11:31:28.178Z,979.85
2019-03-28T11:32:28.170Z,979.86
2019-03-28T11:33:28.163Z,979.84
2019-03-28T11:34:28.154Z,979.82
2019-03-28T11:35:28.147Z,979.86
2019-03-28T11:36:28.139Z,979.93
2019-03-28T11:37:28.491Z,979.9
2019-03-28T11:38:28.765Z,979.9
2019-03-28T11:39:28.118Z,979.97
2019-03-28T11:40:28.110Z,979.87
2019-03-28T11:41:28.102Z,979.83
2019-03-28T11:42:28.097Z,979.77
2019-03-28T11:43:28.093Z,979.78
2019-03-28T11:44:28.080Z,979.94
2019-03-28T11:45:28.072Z,979.87
2019-03-28T11:46:28.064Z,979.85
2019-03-28T11:47:28.057Z,979.89
2019-03-28T11:48:28.048Z,979.81
2019-03-28T11:49:28.042Z,979.9
2019-03-28T11:50:28.036Z,979.87
2019-03-28T11:51:28.027Z,979.86
2019-03-28T11:52:28.019Z,979.83
2019-03-28T11:53:28.012Z,979.86
2019-03-28T11:54:28.005Z,979.85
2019-03-28T11:55:27.999Z,979.83
2019-03-28T11:56:27.989Z,979.83
2019-03-28T11:57:27.983Z,979.8
2019-03-28T11:58:27.975Z,979.81
2019-03-28T11:59:27.966Z,979.8
2019-03-28T12:00:27.960Z,979.81
2019-03-28T12:01:28.046Z,979.87
2019-03-28T12:02:27.945Z,979.76
2019-03-28T12:03:27.942Z,979.79
2019-03-28T12:04:27.930Z,979.74
2019-03-28T12:05:27.926Z,979.68
2019-03-28T12:06:27.915Z,979.73
2019-03-28T12:07:27.908Z,979.69
2019-03-28T12:08:27.901Z,979.63
2019-03-28T12:09:27.895Z,979.62
2019-03-28T12:10:27.885Z,979.7
2019-03-28T12:11:27.879Z,979.66
2019-03-28T12:12:27.874Z,979.69
2019-03-28T12:13:27.865Z,979.63
2019-03-28T12:14:27.856Z,979.69
2019-03-28T12:15:27.909Z,979.64
2019-03-28T12:16:27.842Z,979.65
2019-03-28T12:17:27.833Z,979.69
2019-03-28T12:18:27.826Z,979.68
2019-03-28T12:19:27.822Z,979.61
2019-03-28T12:20:27.812Z,979.64
2019-03-28T12:21:27.804Z,979.61
2019-03-28T12:22:27.797Z,979.58
2019-03-28T12:23:27.791Z,979.68
2019-03-28T12:24:27.783Z,979.61
2019-03-28T12:25:27.776Z,979.61
2019-03-28T12:26:27.768Z,979.57
2019-03-28T12:27:27.761Z,979.55
2019-03-28T12:28:27.753Z,979.49
2019-03-28T12:29:27.747Z,979.53
2019-03-28T12:30:27.739Z,979.51
2019-03-28T12:31:27.731Z,979.58